createdAt,value
2022-07-30T00:01:53.026Z,8.38
2022-07-30T00:04:20.382Z,9.27
2022-07-30T00:06:47.338Z,8.13
2022-07-30T00:09:14.176Z,10.38
2022-07-30T00:11:41.052Z,7.95
2022-07-30T00:14:08.325Z,16.83
2022-07-30T00:16:35.239Z,5.75
2022-07-30T00:19:02.769Z,4.47
2022-07-30T00:21:35.973Z,6.57
2022-07-30T00:24:04.344Z,3.75
2022-07-30T00:26:31.614Z,6.68
2022-07-30T00:28:58.738Z,6.60
2022-07-30T00:31:25.611Z,7.75
2022-07-30T00:33:52.424Z,9.07
2022-07-30T00:36:19.317Z,5.88
2022-07-30T00:38:46.338Z,7.55
2022-07-30T00:41:15.513Z,5.25
2022-07-30T00:43:44.247Z,4.93
2022-07-30T00:46:11.590Z,8.75
2022-07-30T00:48:38.766Z,5.25
2022-07-30T00:51:05.681Z,6.00
2022-07-30T00:53:33.818Z,5.57
2022-07-30T00:56:01.012Z,5.40
2022-07-30T00:58:28.370Z,8.13
2022-07-30T01:00:58.796Z,4.03
2022-07-30T01:03:25.779Z,8.73
2022-07-30T01:05:52.728Z,7.72
2022-07-30T01:08:19.653Z,6.90
2022-07-30T01:10:46.521Z,5.60
2022-07-30T01:13:13.821Z,6.68
2022-07-30T01:15:41.596Z,4.47
2022-07-30T01:18:11.392Z,4.35
2022-07-30T01:21:05.313Z,9.15
2022-07-30T01:23:39.341Z,6.45
2022-07-30T01:26:14.499Z,9.13
2022-07-30T01:28:44.005Z,7.18
2022-07-30T01:31:13.743Z,4.22
2022-07-30T01:33:48.534Z,8.25
2022-07-30T01:36:18.078Z,9.18
2022-07-30T01:38:48.492Z,7.47
2022-07-30T01:41:15.966Z,6.72
2022-07-30T01:43:46.194Z,9.13
2022-07-30T01:46:16.637Z,7.57
2022-07-30T01:48:48.072Z,6.68
2022-07-30T01:51:18.159Z,10.85
2022-07-30T01:53:51.233Z,7.60
2022-07-30T01:56:24.748Z,9.52
2022-07-30T01:58:55.640Z,8.07
2022-07-30T02:01:25.554Z,3.00
2022-07-30T02:04:00.922Z,6.45
2022-07-30T02:06:34.895Z,8.43
2022-07-30T02:09:07.044Z,5.78
2022-07-30T02:12:05.154Z,10.15
2022-07-30T02:14:41.127Z,13.88
2022-07-30T02:17:18.946Z,9.90
2022-07-30T02:19:49.711Z,12.45
2022-07-30T02:22:19.157Z,8.85
2022-07-30T02:24:49.171Z,6.07
2022-07-30T02:27:33.523Z,11.57
2022-07-30T02:30:03.473Z,9.23
2022-07-30T02:32:37.914Z,11.70
2022-07-30T02:35:10.430Z,8.70
2022-07-30T02:37:43.686Z,14.07
2022-07-30T02:40:15.955Z,12.40
2022-07-30T02:42:45.691Z,10.52
2022-07-30T02:45:17.791Z,13.48
2022-07-30T02:47:48.365Z,11.02
2022-07-30T02:50:17.033Z,19.23
2022-07-30T02:52:45.242Z,17.33
2022-07-30T02:55:13.272Z,13.95
2022-07-30T02:57:43.596Z,14.23
2022-07-30T03:00:12.273Z,16.55
2022-07-30T03:02:43.589Z,16.60
2022-07-30T03:05:13.855Z,12.18
2022-07-30T03:07:41.664Z,20.08
2022-07-30T03:10:09.658Z,15.10
2022-07-30T03:12:38.107Z,14.40
2022-07-30T03:15:06.374Z,13.25
2022-07-30T03:17:39.812Z,12.20
2022-07-30T03:20:10.539Z,9.80
2022-07-30T03:22:53.050Z,11.27
2022-07-30T03:25:23.890Z,21.40
2022-07-30T03:27:52.993Z,18.55
2022-07-30T03:30:20.574Z,11.95
2022-07-30T03:32:47.914Z,16.23
2022-07-30T03:35:17.287Z,15.55
2022-07-30T03:37:48.414Z,19.65
2022-07-30T03:40:15.893Z,17.17
2022-07-30T03:42:45.420Z,20.75
2022-07-30T03:45:18.078Z,11.90
2022-07-30T03:47:46.499Z,14.10
2022-07-30T03:50:15.331Z,17.50
2022-07-30T03:52:43.434Z,22.48
2022-07-30T03:55:15.483Z,12.98
2022-07-30T03:57:48.884Z,13.33
2022-07-30T04:00:18.174Z,13.95
2022-07-30T04:02:50.205Z,16.42
2022-07-30T04:05:28.476Z,12.80
2022-07-30T04:08:08.054Z,11.10
2022-07-30T04:10:35.554Z,16.42
2022-07-30T04:13:37.549Z,11.85
2022-07-30T04:16:40.941Z,10.23
2022-07-30T04:19:02.527Z,11.43
2022-07-30T04:21:32.032Z,12.15
2022-07-30T04:24:05.184Z,14.85
2022-07-30T04:26:36.069Z,16.73
2022-07-30T04:29:07.383Z,11.35
2022-07-30T04:31:40.117Z,13.27
2022-07-30T04:34:26.729Z,9.40
2022-07-30T04:36:54.106Z,15.43
2022-07-30T04:39:20.976Z,11.93
2022-07-30T04:41:49.545Z,13.32
2022-07-30T04:44:36.910Z,12.57
2022-07-30T04:47:25.994Z,7.18
2022-07-30T04:50:22.980Z,9.98
2022-07-30T04:52:52.220Z,10.10
2022-07-30T04:55:26.030Z,17.45
2022-07-30T04:57:53.782Z,9.48
2022-07-30T05:00:21.891Z,10.05
2022-07-30T05:02:52.711Z,17.00
2022-07-30T05:05:21.096Z,10.48
2022-07-30T05:07:49.040Z,9.70
2022-07-30T05:10:17.513Z,7.70
2022-07-30T05:12:44.416Z,9.68
2022-07-30T05:15:11.917Z,15.57
2022-07-30T05:17:39.161Z,9.70
2022-07-30T05:20:09.652Z,7.75
2022-07-30T05:22:57.992Z,16.08
2022-07-30T05:25:25.677Z,7.15
2022-07-30T05:27:58.198Z,10.43
2022-07-30T05:30:27.638Z,11.05
2022-07-30T05:32:57.479Z,8.52
2022-07-30T05:35:25.096Z,6.95
2022-07-30T05:37:51.958Z,11.25
2022-07-30T05:40:19.940Z,8.73
2022-07-30T05:43:03.356Z,6.53
2022-07-30T05:45:30.364Z,9.18
2022-07-30T05:47:57.595Z,8.80
2022-07-30T05:50:24.916Z,5.85
2022-07-30T05:52:51.866Z,8.40
2022-07-30T05:55:54.122Z,7.63
2022-07-30T05:58:41.070Z,10.18
2022-07-30T06:01:08.533Z,6.50
2022-07-30T06:03:35.653Z,4.90
2022-07-30T06:06:23.274Z,6.88
2022-07-30T06:08:50.785Z,5.90
2022-07-30T06:11:17.861Z,5.80
2022-07-30T06:13:44.729Z,6.68
2022-07-30T06:16:12.826Z,5.47
2022-07-30T06:18:40.153Z,6.38
2022-07-30T06:21:14.597Z,8.18
2022-07-30T06:24:03.520Z,4.65
2022-07-30T06:26:50.649Z,7.20
2022-07-30T06:29:20.036Z,7.53
2022-07-30T06:31:47.661Z,3.10
2022-07-30T06:34:15.667Z,3.72
2022-07-30T06:36:43.158Z,2.70
2022-07-30T06:39:56.231Z,5.38
2022-07-30T06:42:08.457Z,3.28
2022-07-30T06:44:57.796Z,6.07
2022-07-30T06:47:29.122Z,6.35
2022-07-30T06:49:57.894Z,4.45
2022-07-30T06:52:27.408Z,3.97
2022-07-30T06:54:54.917Z,4.80
2022-07-30T06:57:29.634Z,2.85
2022-07-30T06:59:57.858Z,7.68
2022-07-30T07:02:34.334Z,3.25
2022-07-30T07:05:29.031Z,2.92
2022-07-30T07:07:59.588Z,4.43
2022-07-30T07:10:32.892Z,6.63
2022-07-30T07:13:11.155Z,6.93
2022-07-30T07:15:38.169Z,2.35
2022-07-30T07:18:09.597Z,4.80
2022-07-30T07:20:39.051Z,8.38
2022-07-30T07:23:09.196Z,2.20
2022-07-30T07:25:40.162Z,6.03
2022-07-30T07:28:12.036Z,7.43
2022-07-30T07:30:42.001Z,5.35
2022-07-30T07:33:10.196Z,4.32
2022-07-30T07:35:45.552Z,6.28
2022-07-30T07:38:19.487Z,5.55
2022-07-30T07:40:48.867Z,5.47
2022-07-30T07:43:16.715Z,3.15
2022-07-30T07:45:43.989Z,7.97
2022-07-30T07:48:11.529Z,3.78
2022-07-30T07:51:00.613Z,5.30
2022-07-30T07:55:59.668Z,4.30
2022-07-30T07:58:27.079Z,3.30
2022-07-30T08:00:58.132Z,7.10
2022-07-30T08:03:45.005Z,3.63
2022-07-30T08:06:31.775Z,3.33
2022-07-30T08:09:18.944Z,4.93
2022-07-30T08:12:04.683Z,4.70
2022-07-30T08:14:50.354Z,2.40
2022-07-30T08:17:43.546Z,3.13
2022-07-30T08:20:15.558Z,3.90
2022-07-30T08:22:42.801Z,6.85
2022-07-30T08:25:11.191Z,3.10
2022-07-30T08:27:38.212Z,5.60
2022-07-30T08:30:08.340Z,2.50
2022-07-30T08:32:36.406Z,6.32
2022-07-30T08:35:05.485Z,6.15
2022-07-30T08:37:34.316Z,6.13
2022-07-30T08:40:02.382Z,4.10
2022-07-30T08:42:31.044Z,5.45
2022-07-30T08:44:57.925Z,2.88
2022-07-30T08:47:32.909Z,5.15
2022-07-30T08:50:12.886Z,6.57
2022-07-30T08:53:13.790Z,7.70
2022-07-30T08:55:42.035Z,7.15
2022-07-30T08:58:27.602Z,4.00
2022-07-30T09:00:57.597Z,7.30
2022-07-30T09:03:24.651Z,6.18
2022-07-30T09:05:51.573Z,3.88
2022-07-30T09:08:18.902Z,3.80
2022-07-30T09:10:49.513Z,1.85
2022-07-30T09:15:57.796Z,4.28
2022-07-30T09:18:36.672Z,5.57
2022-07-30T09:21:26.054Z,2.92
2022-07-30T09:24:13.206Z,2.53
2022-07-30T09:27:05.178Z,5.40
2022-07-30T09:29:59.279Z,5.88
2022-07-30T09:32:54.999Z,3.75
2022-07-30T09:35:41.875Z,3.45
2022-07-30T09:38:12.435Z,5.78
2022-07-30T09:41:00.183Z,4.53
2022-07-30T09:43:50.652Z,1.98
2022-07-30T09:46:50.878Z,2.85
2022-07-30T09:49:28.689Z,7.13
2022-07-30T09:51:57.518Z,1.70
2022-07-30T09:54:51.887Z,3.13
2022-07-30T09:57:25.467Z,2.63
2022-07-30T09:59:59.710Z,4.75
2022-07-30T10:02:33.870Z,3.05
2022-07-30T10:05:15.313Z,7.07
2022-07-30T10:07:57.334Z,4.25
2022-07-30T10:10:29.354Z,3.95
2022-07-30T10:13:04.545Z,6.78
2022-07-30T10:15:34.929Z,4.30
2022-07-30T10:18:06.099Z,3.60
2022-07-30T10:20:52.261Z,6.57
2022-07-30T10:23:45.148Z,7.72
2022-07-30T10:26:35.049Z,6.65
2022-07-30T10:29:42.551Z,9.73
2022-07-30T10:32:10.507Z,4.18
2022-07-30T10:34:42.649Z,10.48
2022-07-30T10:37:12.410Z,2.72
2022-07-30T10:39:59.909Z,3.03
2022-07-30T10:43:23.742Z,8.93
2022-07-30T10:46:22.021Z,3.95
2022-07-30T10:48:50.141Z,4.40
2022-07-30T10:51:18.516Z,3.15
2022-07-30T10:53:52.582Z,5.63
2022-07-30T10:56:25.834Z,2.95
2022-07-30T11:01:30.489Z,6.27
2022-07-30T11:04:20.726Z,4.75
2022-07-30T11:06:48.798Z,3.83
2022-07-30T11:09:41.025Z,4.65
2022-07-30T11:12:11.180Z,3.40
2022-07-30T11:14:48.318Z,2.33
2022-07-30T11:17:17.322Z,6.73
2022-07-30T11:20:06.833Z,2.63
2022-07-30T11:22:41.009Z,8.07
2022-07-30T11:25:13.193Z,3.28
2022-07-30T11:27:46.514Z,2.05
2022-07-30T11:30:20.926Z,1.42
2022-07-30T11:33:18.539Z,1.88
2022-07-30T11:36:10.607Z,4.10
2022-07-30T11:38:51.098Z,6.07
2022-07-30T11:41:18.074Z,4.50
2022-07-30T11:43:45.012Z,6.35
2022-07-30T11:46:15.720Z,3.78
2022-07-30T11:48:54.628Z,9.05
2022-07-30T11:51:21.546Z,3.53
2022-07-30T11:54:08.471Z,4.97
2022-07-30T11:56:35.232Z,14.70
2022-07-30T11:59:07.661Z,4.00
2022-07-30T12:01:35.895Z,1.75
2022-07-30T12:04:05.099Z,4.00
2022-07-30T12:06:32.311Z,5.45
2022-07-30T12:08:59.740Z,3.00
2022-07-30T12:11:33.136Z,3.75
2022-07-30T12:14:02.078Z,2.97
2022-07-30T12:16:30.779Z,2.90
2022-07-30T12:19:06.424Z,3.00
2022-07-30T12:21:34.438Z,3.55
2022-07-30T12:24:03.430Z,1.52
2022-07-30T12:26:32.260Z,3.28
2022-07-30T12:29:01.504Z,2.67
2022-07-30T12:31:28.634Z,3.67
2022-07-30T12:33:58.981Z,4.28
2022-07-30T12:36:35.072Z,6.93
2022-07-30T12:39:04.073Z,4.90
2022-07-30T12:41:51.281Z,2.35
2022-07-30T12:44:38.681Z,3.10
2022-07-30T12:47:07.588Z,2.80
2022-07-30T12:49:36.529Z,1.50
2022-07-30T12:52:09.589Z,5.45
2022-07-30T12:54:38.706Z,3.22
2022-07-30T12:57:06.378Z,5.95
2022-07-30T12:59:35.253Z,3.40
2022-07-30T13:02:03.925Z,2.40
2022-07-30T13:04:31.822Z,2.78
2022-07-30T13:07:09.055Z,5.45
2022-07-30T13:09:36.715Z,3.53
2022-07-30T13:12:04.296Z,3.60
2022-07-30T13:14:31.180Z,3.67
2022-07-30T13:16:58.768Z,2.70
2022-07-30T13:19:26.586Z,1.73
2022-07-30T13:21:53.444Z,6.60
2022-07-30T13:24:21.003Z,6.53
2022-07-30T13:26:50.593Z,6.22
2022-07-30T13:29:18.158Z,11.23
2022-07-30T13:31:45.004Z,7.18
2022-07-30T13:34:12.436Z,7.68
2022-07-30T13:36:39.615Z,5.80
2022-07-30T13:39:07.403Z,4.43
2022-07-30T13:41:36.082Z,1.90
2022-07-30T13:44:03.667Z,6.53
2022-07-30T13:46:31.578Z,5.07
2022-07-30T13:48:59.627Z,4.85
2022-07-30T13:51:26.544Z,3.13
2022-07-30T13:53:53.370Z,4.55
2022-07-30T13:56:21.321Z,3.15
2022-07-30T13:58:48.406Z,1.10
2022-07-30T14:01:17.763Z,2.38
2022-07-30T14:03:49.974Z,0.93
2022-07-30T14:06:18.942Z,3.67
2022-07-30T14:08:46.264Z,2.55
2022-07-30T14:11:13.168Z,5.68
2022-07-30T14:13:40.009Z,2.75
2022-07-30T14:16:18.086Z,2.40
2022-07-30T14:18:54.230Z,6.10
2022-07-30T14:21:21.075Z,2.80
2022-07-30T14:23:47.981Z,1.33
2022-07-30T14:26:15.081Z,2.72
2022-07-30T14:28:41.947Z,6.65
2022-07-30T14:31:08.723Z,2.78
2022-07-30T14:33:35.642Z,5.70
2022-07-30T14:36:02.434Z,3.55
2022-07-30T14:38:29.267Z,2.83
2022-07-30T14:40:56.260Z,2.47
2022-07-30T14:43:24.779Z,3.28
2022-07-30T14:45:53.261Z,4.22
2022-07-30T14:48:20.320Z,1.33
2022-07-30T14:51:12.980Z,3.47
2022-07-30T14:53:34.160Z,7.43
2022-07-30T14:56:00.872Z,2.15
2022-07-30T14:58:27.837Z,4.38
2022-07-30T15:00:54.693Z,5.03
2022-07-30T15:03:22.176Z,3.92
2022-07-30T15:05:52.313Z,5.00
2022-07-30T15:08:19.539Z,5.53
2022-07-30T15:10:46.405Z,2.78
2022-07-30T15:13:14.531Z,4.50
2022-07-30T15:15:42.244Z,2.42
2022-07-30T15:18:12.080Z,7.05
2022-07-30T15:20:39.327Z,2.03
2022-07-30T15:23:08.431Z,1.48
2022-07-30T15:25:38.647Z,2.53
2022-07-30T15:28:05.440Z,4.85
2022-07-30T15:30:32.405Z,4.40
2022-07-30T15:32:59.261Z,5.03
2022-07-30T15:35:26.593Z,4.68
2022-07-30T15:37:53.385Z,3.63
2022-07-30T15:40:20.250Z,1.63
2022-07-30T15:42:48.086Z,2.08
2022-07-30T15:45:17.668Z,1.55
2022-07-30T15:47:45.018Z,1.20
2022-07-30T15:50:11.980Z,2.35
2022-07-30T15:52:39.148Z,3.72
2022-07-30T15:55:07.145Z,3.55
2022-07-30T15:57:33.946Z,1.52
2022-07-30T16:00:00.962Z,2.97
2022-07-30T16:02:28.000Z,1.08
2022-07-30T16:04:54.912Z,3.13
2022-07-30T16:07:21.741Z,2.42
2022-07-30T16:09:48.498Z,2.55
2022-07-30T16:12:15.351Z,2.22
2022-07-30T16:14:42.292Z,4.80
2022-07-30T16:17:13.726Z,2.88
2022-07-30T16:19:44.727Z,9.18
2022-07-30T16:22:15.061Z,5.28
2022-07-30T16:24:51.067Z,1.00
2022-07-30T16:27:18.030Z,3.92
2022-07-30T16:29:44.979Z,2.67
2022-07-30T16:32:11.828Z,2.40
2022-07-30T16:34:38.785Z,2.10
2022-07-30T16:37:05.698Z,5.15
2022-07-30T16:39:32.570Z,1.33
2022-07-30T16:41:59.592Z,2.72
2022-07-30T16:44:33.780Z,4.03
2022-07-30T16:47:01.143Z,2.60
2022-07-30T16:49:28.510Z,5.15
2022-07-30T16:51:55.759Z,1.33
2022-07-30T16:54:22.786Z,1.00
2022-07-30T16:56:52.833Z,1.30
2022-07-30T16:59:20.668Z,2.92
2022-07-30T17:01:48.023Z,0.90
2022-07-30T17:04:15.382Z,5.25
2022-07-30T17:06:44.249Z,3.10
2022-07-30T17:09:15.801Z,0.95
2022-07-30T17:11:47.250Z,2.58
2022-07-30T17:14:15.288Z,2.75
2022-07-30T17:16:42.188Z,4.15
2022-07-30T17:19:09.652Z,1.45
2022-07-30T17:21:38.078Z,4.97
2022-07-30T17:24:11.022Z,1.60
2022-07-30T17:26:43.033Z,4.30
2022-07-30T17:29:14.914Z,2.35
2022-07-30T17:31:44.106Z,2.95
2022-07-30T17:34:13.645Z,2.92
2022-07-30T17:36:44.303Z,4.03
2022-07-30T17:40:29.820Z,1.80
2022-07-30T17:42:06.043Z,4.05
2022-07-30T17:44:33.199Z,1.65
2022-07-30T17:47:00.009Z,1.95
2022-07-30T17:49:27.419Z,14.52
2022-07-30T17:51:54.296Z,3.72
2022-07-30T17:54:21.233Z,6.38
2022-07-30T17:56:48.000Z,2.80
2022-07-30T17:59:14.751Z,1.38
2022-07-30T18:01:41.666Z,3.60
2022-07-30T18:04:08.542Z,2.80
2022-07-30T18:06:35.969Z,6.30
2022-07-30T18:09:04.638Z,2.78
2022-07-30T18:11:32.072Z,5.47
2022-07-30T18:13:59.053Z,4.32
2022-07-30T18:16:26.200Z,2.60
2022-07-30T18:18:53.028Z,3.50
2022-07-30T18:21:19.888Z,4.50
2022-07-30T18:23:46.716Z,1.92
2022-07-30T18:26:15.437Z,2.45
2022-07-30T18:28:42.246Z,2.55
2022-07-30T18:31:09.247Z,4.28
2022-07-30T18:33:36.067Z,2.55
2022-07-30T18:36:02.986Z,5.05
2022-07-30T18:38:30.151Z,3.03
2022-07-30T18:40:59.622Z,2.33
2022-07-30T18:43:27.815Z,1.25
2022-07-30T18:45:55.759Z,2.67
2022-07-30T18:48:23.142Z,2.60
2022-07-30T18:50:50.569Z,1.88
2022-07-30T18:53:17.476Z,3.45
2022-07-30T18:55:45.219Z,1.98
2022-07-30T18:58:12.122Z,6.60
2022-07-30T19:00:42.619Z,2.53
2022-07-30T19:03:17.574Z,4.88
2022-07-30T19:05:48.042Z,1.67
2022-07-30T19:08:14.874Z,17.52
2022-07-30T19:10:41.986Z,4.47
2022-07-30T19:13:08.887Z,3.13
2022-07-30T19:15:35.894Z,9.38
2022-07-30T19:18:02.794Z,7.40
2022-07-30T19:20:29.577Z,7.65
2022-07-30T19:23:04.653Z,3.75
2022-07-30T19:25:33.375Z,3.05
2022-07-30T19:28:03.876Z,3.38
2022-07-30T19:30:32.002Z,20.83
2022-07-30T19:33:15.289Z,6.35
2022-07-30T19:35:43.826Z,3.67
2022-07-30T19:38:14.366Z,4.07
2022-07-30T19:40:49.290Z,10.68
2022-07-30T19:43:16.128Z,5.88
2022-07-30T19:45:47.368Z,8.13
2022-07-30T19:48:15.614Z,4.13
2022-07-30T19:50:57.943Z,8.25
2022-07-30T19:53:26.164Z,4.75
2022-07-30T19:55:54.750Z,3.88
2022-07-30T19:58:24.979Z,8.68
2022-07-30T20:00:53.162Z,1.77
2022-07-30T20:03:25.789Z,5.07
2022-07-30T20:05:58.925Z,4.57
2022-07-30T20:08:27.980Z,7.05
2022-07-30T20:10:57.843Z,3.38
2022-07-30T20:13:44.854Z,3.95
2022-07-30T20:16:15.745Z,2.75
2022-07-30T20:18:43.517Z,5.95
2022-07-30T20:21:14.860Z,5.30
2022-07-30T20:23:44.280Z,2.85
2022-07-30T20:26:14.169Z,3.00
2022-07-30T20:28:52.656Z,8.20
2022-07-30T20:31:20.138Z,5.60
2022-07-30T20:33:50.048Z,1.95
2022-07-30T20:36:34.938Z,2.08
2022-07-30T20:39:01.769Z,7.65
2022-07-30T20:41:31.906Z,3.53
2022-07-30T20:44:00.713Z,4.47
2022-07-30T20:46:27.717Z,4.25
2022-07-30T20:48:55.682Z,3.40
2022-07-30T20:51:33.521Z,14.57
2022-07-30T20:54:02.396Z,5.50
2022-07-30T20:56:29.524Z,3.70
2022-07-30T20:58:56.934Z,2.90
2022-07-30T21:01:23.806Z,4.38
2022-07-30T21:03:50.814Z,6.72
2022-07-30T21:06:17.749Z,3.35
2022-07-30T21:08:44.661Z,5.80
2022-07-30T21:11:12.540Z,7.57
2022-07-30T21:13:39.843Z,5.70
2022-07-30T21:16:15.369Z,5.43
2022-07-30T21:18:49.822Z,2.90
2022-07-30T21:21:29.191Z,5.53
2022-07-30T21:24:05.354Z,6.45
2022-07-30T21:26:32.215Z,2.40
2022-07-30T21:29:00.689Z,7.72
2022-07-30T21:31:57.922Z,7.65
2022-07-30T21:34:14.577Z,4.10
2022-07-30T21:36:42.654Z,3.42
2022-07-30T21:39:09.899Z,4.97
2022-07-30T21:41:41.027Z,5.25
2022-07-30T21:44:08.210Z,7.35
2022-07-30T21:46:37.863Z,6.50
2022-07-30T21:49:06.990Z,3.60
2022-07-30T21:51:34.335Z,6.90
2022-07-30T21:54:02.567Z,2.45
2022-07-30T21:56:34.261Z,9.20
2022-07-30T21:59:01.068Z,9.02
2022-07-30T22:01:27.884Z,7.57
2022-07-30T22:04:01.470Z,4.22
2022-07-30T22:06:40.282Z,5.45
2022-07-30T22:09:19.548Z,3.45
2022-07-30T22:12:01.011Z,2.10
2022-07-30T22:14:28.913Z,2.88
2022-07-30T22:16:57.085Z,8.38
2022-07-30T22:19:25.854Z,3.60
2022-07-30T22:21:53.077Z,6.68
2022-07-30T22:24:29.305Z,3.03
2022-07-30T22:27:01.674Z,4.32
2022-07-30T22:29:38.111Z,4.35
2022-07-30T22:32:06.539Z,3.47
2022-07-30T22:34:35.030Z,3.80
2022-07-30T22:37:01.944Z,5.13
2022-07-30T22:39:32.167Z,2.58
2022-07-30T22:42:16.057Z,6.55
2022-07-30T22:44:45.915Z,4.32
2022-07-30T22:47:21.871Z,2.55
2022-07-30T22:50:01.985Z,8.30
2022-07-30T22:52:30.914Z,11.43
2022-07-30T22:55:08.466Z,4.05
2022-07-30T22:57:37.716Z,7.80
2022-07-30T23:00:12.096Z,2.97
2022-07-30T23:02:40.821Z,5.75
2022-07-30T23:05:11.645Z,5.57
2022-07-30T23:07:40.064Z,5.88
2022-07-30T23:10:18.237Z,7.07
2022-07-30T23:12:48.758Z,3.55
2022-07-30T23:15:15.852Z,4.13
2022-07-30T23:17:43.371Z,5.97
2022-07-30T23:20:13.632Z,5.35
2022-07-30T23:22:40.954Z,3.58
2022-07-30T23:25:10.290Z,4.22
2022-07-30T23:27:37.829Z,3.92
2022-07-30T23:30:06.232Z,5.72
2022-07-30T23:32:33.128Z,3.85
2022-07-30T23:34:59.944Z,8.05
2022-07-30T23:37:27.310Z,5.03
2022-07-30T23:39:54.250Z,4.65
2022-07-30T23:42:21.108Z,4.93
2022-07-30T23:44:47.980Z,5.47
2022-07-30T23:47:14.829Z,5.07
2022-07-30T23:49:41.575Z,5.25
2022-07-30T23:52:09.518Z,2.38
2022-07-30T23:54:36.688Z,4.78
2022-07-30T23:57:04.149Z,10.13
2022-07-30T23:59:40.952Z,10.63
